sensor_id;sensor_type;location;lat;lon;timestamp;temperature;humidity
44823;DHT22;51097;51.984;5.650;2023-06-10T00:01:29;23.90;78.00
44823;DHT22;51097;51.984;5.650;2023-06-10T00:03:55;24.00;77.50
44823;DHT22;51097;51.984;5.650;2023-06-10T00:06:21;24.10;78.00
44823;DHT22;51097;51.984;5.650;2023-06-10T00:08:50;24.00;78.50
44823;DHT22;51097;51.984;5.650;2023-06-10T00:11:15;23.90;78.40
44823;DHT22;51097;51.984;5.650;2023-06-10T00:13:41;23.90;78.50
44823;DHT22;51097;51.984;5.650;2023-06-10T00:16:06;23.90;78.00
44823;DHT22;51097;51.984;5.650;2023-06-10T00:18:32;23.90;78.40
44823;DHT22;51097;51.984;5.650;2023-06-10T00:20:58;23.90;78.80
44823;DHT22;51097;51.984;5.650;2023-06-10T00:23:29;23.90;78.80
44823;DHT22;51097;51.984;5.650;2023-06-10T00:26:02;23.90;79.30
44823;DHT22;51097;51.984;5.650;2023-06-10T00:28:28;23.90;79.50
44823;DHT22;51097;51.984;5.650;2023-06-10T00:30:53;23.80;79.20
44823;DHT22;51097;51.984;5.650;2023-06-10T00:33:19;23.90;79.10
44823;DHT22;51097;51.984;5.650;2023-06-10T00:35:45;23.80;78.90
44823;DHT22;51097;51.984;5.650;2023-06-10T00:38:12;23.70;78.60
44823;DHT22;51097;51.984;5.650;2023-06-10T00:40:41;23.70;78.70
44823;DHT22;51097;51.984;5.650;2023-06-10T00:43:07;23.90;78.60
44823;DHT22;51097;51.984;5.650;2023-06-10T00:45:33;23.80;78.80
44823;DHT22;51097;51.984;5.650;2023-06-10T00:48:00;23.80;78.70
44823;DHT22;51097;51.984;5.650;2023-06-10T00:50:26;23.60;79.30
44823;DHT22;51097;51.984;5.650;2023-06-10T00:52:56;23.70;78.50
44823;DHT22;51097;51.984;5.650;2023-06-10T00:55:22;23.70;78.20
44823;DHT22;51097;51.984;5.650;2023-06-10T00:57:49;23.80;78.10
44823;DHT22;51097;51.984;5.650;2023-06-10T01:00:15;23.60;78.30
44823;DHT22;51097;51.984;5.650;2023-06-10T01:02:42;23.60;78.10
44823;DHT22;51097;51.984;5.650;2023-06-10T01:05:10;23.60;78.00
44823;DHT22;51097;51.984;5.650;2023-06-10T01:07:38;23.60;78.10
44823;DHT22;51097;51.984;5.650;2023-06-10T01:10:20;23.60;78.10
44823;DHT22;51097;51.984;5.650;2023-06-10T01:13:06;23.60;77.70
44823;DHT22;51097;51.984;5.650;2023-06-10T01:15:34;23.60;77.30
44823;DHT22;51097;51.984;5.650;2023-06-10T01:18:02;23.60;77.00
44823;DHT22;51097;51.984;5.650;2023-06-10T01:20:29;23.60;77.30
44823;DHT22;51097;51.984;5.650;2023-06-10T01:22:58;23.50;77.40
44823;DHT22;51097;51.984;5.650;2023-06-10T01:25:26;23.40;77.60
44823;DHT22;51097;51.984;5.650;2023-06-10T01:31:17;23.50;77.30
44823;DHT22;51097;51.984;5.650;2023-06-10T01:33:47;23.50;77.30
44823;DHT22;51097;51.984;5.650;2023-06-10T01:36:15;23.40;77.20
44823;DHT22;51097;51.984;5.650;2023-06-10T01:38:43;23.40;76.90
44823;DHT22;51097;51.984;5.650;2023-06-10T01:41:11;23.40;77.20
44823;DHT22;51097;51.984;5.650;2023-06-10T01:43:38;23.30;77.50
44823;DHT22;51097;51.984;5.650;2023-06-10T01:46:04;23.40;76.50
44823;DHT22;51097;51.984;5.650;2023-06-10T01:48:30;23.30;77.20
44823;DHT22;51097;51.984;5.650;2023-06-10T01:50:55;23.20;76.80
44823;DHT22;51097;51.984;5.650;2023-06-10T01:53:22;23.30;76.80
44823;DHT22;51097;51.984;5.650;2023-06-10T01:55:48;23.30;77.30
44823;DHT22;51097;51.984;5.650;2023-06-10T01:58:13;23.30;77.10
44823;DHT22;51097;51.984;5.650;2023-06-10T02:00:39;23.20;77.10
44823;DHT22;51097;51.984;5.650;2023-06-10T02:03:04;23.20;77.30
44823;DHT22;51097;51.984;5.650;2023-06-10T02:05:30;23.20;77.20
44823;DHT22;51097;51.984;5.650;2023-06-10T02:07:56;23.10;77.40
44823;DHT22;51097;51.984;5.650;2023-06-10T02:10:21;23.10;77.60
44823;DHT22;51097;51.984;5.650;2023-06-10T02:12:47;23.00;77.80
44823;DHT22;51097;51.984;5.650;2023-06-10T02:15:12;22.90;77.80
44823;DHT22;51097;51.984;5.650;2023-06-10T02:17:38;22.90;77.90
44823;DHT22;51097;51.984;5.650;2023-06-10T02:20:04;23.00;78.00
44823;DHT22;51097;51.984;5.650;2023-06-10T02:22:32;22.90;78.20
44823;DHT22;51097;51.984;5.650;2023-06-10T02:24:58;22.90;78.20
44823;DHT22;51097;51.984;5.650;2023-06-10T02:27:24;22.90;78.40
44823;DHT22;51097;51.984;5.650;2023-06-10T02:29:50;22.90;78.70
44823;DHT22;51097;51.984;5.650;2023-06-10T02:32:15;22.90;78.30
44823;DHT22;51097;51.984;5.650;2023-06-10T02:34:42;22.90;78.80
44823;DHT22;51097;51.984;5.650;2023-06-10T02:37:08;22.80;78.80
44823;DHT22;51097;51.984;5.650;2023-06-10T02:39:34;22.70;79.00
44823;DHT22;51097;51.984;5.650;2023-06-10T02:41:59;22.80;79.00
44823;DHT22;51097;51.984;5.650;2023-06-10T02:44:25;22.70;79.50
44823;DHT22;51097;51.984;5.650;2023-06-10T02:46:51;22.70;80.10
44823;DHT22;51097;51.984;5.650;2023-06-10T02:49:16;22.70;79.90
44823;DHT22;51097;51.984;5.650;2023-06-10T02:51:42;22.70;80.10
44823;DHT22;51097;51.984;5.650;2023-06-10T02:54:07;22.70;80.30
44823;DHT22;51097;51.984;5.650;2023-06-10T02:56:33;22.60;80.20
44823;DHT22;51097;51.984;5.650;2023-06-10T02:58:59;22.60;80.90
44823;DHT22;51097;51.984;5.650;2023-06-10T03:01:25;22.60;81.10
44823;DHT22;51097;51.984;5.650;2023-06-10T03:03:51;22.60;81.20
44823;DHT22;51097;51.984;5.650;2023-06-10T03:06:18;22.60;81.70
44823;DHT22;51097;51.984;5.650;2023-06-10T03:08:44;22.50;81.60
44823;DHT22;51097;51.984;5.650;2023-06-10T03:11:11;22.40;82.00
44823;DHT22;51097;51.984;5.650;2023-06-10T03:13:38;22.40;82.60
44823;DHT22;51097;51.984;5.650;2023-06-10T03:16:03;22.40;82.60
44823;DHT22;51097;51.984;5.650;2023-06-10T03:18:29;22.40;82.60
44823;DHT22;51097;51.984;5.650;2023-06-10T03:20:55;22.30;83.20
44823;DHT22;51097;51.984;5.650;2023-06-10T03:23:22;22.30;83.50
44823;DHT22;51097;51.984;5.650;2023-06-10T03:25:48;22.40;83.60
44823;DHT22;51097;51.984;5.650;2023-06-10T03:28:13;22.40;83.80
44823;DHT22;51097;51.984;5.650;2023-06-10T03:30:39;22.40;83.70
44823;DHT22;51097;51.984;5.650;2023-06-10T03:33:05;22.40;84.10
44823;DHT22;51097;51.984;5.650;2023-06-10T03:35:31;22.40;83.50
44823;DHT22;51097;51.984;5.650;2023-06-10T03:37:58;22.30;84.30
44823;DHT22;51097;51.984;5.650;2023-06-10T03:40:23;22.30;84.40
44823;DHT22;51097;51.984;5.650;2023-06-10T03:42:49;22.10;85.00
44823;DHT22;51097;51.984;5.650;2023-06-10T03:45:14;22.10;84.80
44823;DHT22;51097;51.984;5.650;2023-06-10T03:47:40;22.00;85.70
44823;DHT22;51097;51.984;5.650;2023-06-10T03:50:07;22.00;86.40
44823;DHT22;51097;51.984;5.650;2023-06-10T03:52:35;22.00;86.60
44823;DHT22;51097;51.984;5.650;2023-06-10T03:55:01;22.00;86.70
44823;DHT22;51097;51.984;5.650;2023-06-10T03:57:26;21.90;87.30
44823;DHT22;51097;51.984;5.650;2023-06-10T03:59:52;21.90;87.50
44823;DHT22;51097;51.984;5.650;2023-06-10T04:02:17;21.90;87.60
44823;DHT22;51097;51.984;5.650;2023-06-10T04:04:43;21.90;88.30
44823;DHT22;51097;51.984;5.650;2023-06-10T04:07:09;21.90;88.60
44823;DHT22;51097;51.984;5.650;2023-06-10T04:09:35;21.80;89.30
44823;DHT22;51097;51.984;5.650;2023-06-10T04:12:02;21.80;89.10
44823;DHT22;51097;51.984;5.650;2023-06-10T04:14:27;21.80;89.70
44823;DHT22;51097;51.984;5.650;2023-06-10T04:16:53;21.90;89.70
44823;DHT22;51097;51.984;5.650;2023-06-10T04:19:19;21.80;90.20
44823;DHT22;51097;51.984;5.650;2023-06-10T04:21:45;21.80;90.40
44823;DHT22;51097;51.984;5.650;2023-06-10T04:24:10;21.80;90.60
44823;DHT22;51097;51.984;5.650;2023-06-10T04:26:36;21.80;90.70
44823;DHT22;51097;51.984;5.650;2023-06-10T04:29:02;21.80;90.80
44823;DHT22;51097;51.984;5.650;2023-06-10T04:31:27;21.80;90.90
44823;DHT22;51097;51.984;5.650;2023-06-10T04:33:53;21.80;91.30
44823;DHT22;51097;51.984;5.650;2023-06-10T04:36:19;21.90;91.20
44823;DHT22;51097;51.984;5.650;2023-06-10T04:38:46;21.90;90.80
44823;DHT22;51097;51.984;5.650;2023-06-10T04:41:12;22.00;91.60
44823;DHT22;51097;51.984;5.650;2023-06-10T04:43:38;21.90;91.80
44823;DHT22;51097;51.984;5.650;2023-06-10T04:46:04;22.10;91.50
44823;DHT22;51097;51.984;5.650;2023-06-10T04:48:29;22.00;91.90
44823;DHT22;51097;51.984;5.650;2023-06-10T04:50:55;22.00;92.00
44823;DHT22;51097;51.984;5.650;2023-06-10T04:53:21;22.00;92.30
44823;DHT22;51097;51.984;5.650;2023-06-10T04:55:47;21.90;92.40
44823;DHT22;51097;51.984;5.650;2023-06-10T04:58:14;22.00;92.60
44823;DHT22;51097;51.984;5.650;2023-06-10T05:00:39;22.00;92.70
44823;DHT22;51097;51.984;5.650;2023-06-10T05:03:05;22.00;92.90
44823;DHT22;51097;51.984;5.650;2023-06-10T05:05:31;22.00;93.00
44823;DHT22;51097;51.984;5.650;2023-06-10T05:07:56;22.10;93.40
44823;DHT22;51097;51.984;5.650;2023-06-10T05:10:22;22.20;93.30
44823;DHT22;51097;51.984;5.650;2023-06-10T05:12:48;22.20;93.20
44823;DHT22;51097;51.984;5.650;2023-06-10T05:15:13;22.30;93.30
44823;DHT22;51097;51.984;5.650;2023-06-10T05:17:39;22.30;93.60
44823;DHT22;51097;51.984;5.650;2023-06-10T05:20:05;22.40;93.60
44823;DHT22;51097;51.984;5.650;2023-06-10T05:22:31;22.40;93.50
44823;DHT22;51097;51.984;5.650;2023-06-10T05:24:57;22.30;93.80
44823;DHT22;51097;51.984;5.650;2023-06-10T05:27:23;22.30;93.70
44823;DHT22;51097;51.984;5.650;2023-06-10T05:29:49;22.40;93.90
44823;DHT22;51097;51.984;5.650;2023-06-10T05:32:17;22.60;93.80
44823;DHT22;51097;51.984;5.650;2023-06-10T05:34:42;22.60;93.60
44823;DHT22;51097;51.984;5.650;2023-06-10T05:37:08;22.70;94.00
44823;DHT22;51097;51.984;5.650;2023-06-10T05:39:35;22.70;94.10
44823;DHT22;51097;51.984;5.650;2023-06-10T05:42:04;22.70;94.20
44823;DHT22;51097;51.984;5.650;2023-06-10T05:44:29;22.80;93.60
44823;DHT22;51097;51.984;5.650;2023-06-10T05:46:55;22.80;94.30
44823;DHT22;51097;51.984;5.650;2023-06-10T05:49:20;22.80;94.10
44823;DHT22;51097;51.984;5.650;2023-06-10T05:51:46;22.90;94.50
44823;DHT22;51097;51.984;5.650;2023-06-10T05:54:11;23.00;94.40
44823;DHT22;51097;51.984;5.650;2023-06-10T05:56:37;23.00;94.40
44823;DHT22;51097;51.984;5.650;2023-06-10T05:59:03;23.10;94.20
44823;DHT22;51097;51.984;5.650;2023-06-10T06:01:28;23.10;94.60
44823;DHT22;51097;51.984;5.650;2023-06-10T06:03:54;23.20;94.40
44823;DHT22;51097;51.984;5.650;2023-06-10T06:06:21;23.40;94.40
44823;DHT22;51097;51.984;5.650;2023-06-10T06:38:50;24.30;93.60
44823;DHT22;51097;51.984;5.650;2023-06-10T06:41:15;24.40;93.70
44823;DHT22;51097;51.984;5.650;2023-06-10T06:43:41;24.50;94.10
44823;DHT22;51097;51.984;5.650;2023-06-10T07:22:42;26.50;91.80
44823;DHT22;51097;51.984;5.650;2023-06-10T07:46:51;29.10;85.30
44823;DHT22;51097;51.984;5.650;2023-06-10T07:53:16;29.80;82.40
44823;DHT22;51097;51.984;5.650;2023-06-10T08:00:00;30.50;80.60
44823;DHT22;51097;51.984;5.650;2023-06-10T08:02:35;30.80;80.00
44823;DHT22;51097;51.984;5.650;2023-06-10T08:08:57;31.40;77.80
44823;DHT22;51097;51.984;5.650;2023-06-10T08:11:25;31.70;78.20
44823;DHT22;51097;51.984;5.650;2023-06-10T08:13:53;32.00;74.40
44823;DHT22;51097;51.984;5.650;2023-06-10T08:53:04;35.00;64.70
44823;DHT22;51097;51.984;5.650;2023-06-10T09:17:25;36.00;61.50
44823;DHT22;51097;51.984;5.650;2023-06-10T09:19:52;36.30;62.30
44823;DHT22;51097;51.984;5.650;2023-06-10T09:22:19;36.60;62.30
44823;DHT22;51097;51.984;5.650;2023-06-10T09:24:46;36.70;62.40
44823;DHT22;51097;51.984;5.650;2023-06-10T09:27:11;36.90;61.20
44823;DHT22;51097;51.984;5.650;2023-06-10T09:29:54;37.00;60.70
44823;DHT22;51097;51.984;5.650;2023-06-10T09:32:20;37.20;62.00
44823;DHT22;51097;51.984;5.650;2023-06-10T09:34:47;37.40;62.20
44823;DHT22;51097;51.984;5.650;2023-06-10T09:37:19;37.60;59.20
44823;DHT22;51097;51.984;5.650;2023-06-10T09:39:45;37.80;61.10
44823;DHT22;51097;51.984;5.650;2023-06-10T09:42:25;37.90;59.30
44823;DHT22;51097;51.984;5.650;2023-06-10T09:44:51;38.30;58.80
44823;DHT22;51097;51.984;5.650;2023-06-10T09:47:23;38.40;59.40
44823;DHT22;51097;51.984;5.650;2023-06-10T09:49:50;38.60;59.00
44823;DHT22;51097;51.984;5.650;2023-06-10T09:52:23;38.90;58.80
44823;DHT22;51097;51.984;5.650;2023-06-10T09:54:53;39.10;59.80
44823;DHT22;51097;51.984;5.650;2023-06-10T09:57:21;39.30;57.50
44823;DHT22;51097;51.984;5.650;2023-06-10T09:59:47;39.50;57.30
44823;DHT22;51097;51.984;5.650;2023-06-10T10:02:17;39.50;55.80
44823;DHT22;51097;51.984;5.650;2023-06-10T10:04:44;39.60;58.70
44823;DHT22;51097;51.984;5.650;2023-06-10T10:07:10;39.90;60.10
44823;DHT22;51097;51.984;5.650;2023-06-10T10:09:37;40.10;55.60
44823;DHT22;51097;51.984;5.650;2023-06-10T10:12:10;40.20;54.00
44823;DHT22;51097;51.984;5.650;2023-06-10T10:14:37;40.40;57.40
44823;DHT22;51097;51.984;5.650;2023-06-10T10:17:06;40.50;55.10
44823;DHT22;51097;51.984;5.650;2023-06-10T10:19:37;40.70;54.20
44823;DHT22;51097;51.984;5.650;2023-06-10T10:22:08;40.60;53.90
44823;DHT22;51097;51.984;5.650;2023-06-10T10:24:40;40.80;56.00
44823;DHT22;51097;51.984;5.650;2023-06-10T10:27:13;40.80;56.40
44823;DHT22;51097;51.984;5.650;2023-06-10T10:29:46;41.20;51.70
44823;DHT22;51097;51.984;5.650;2023-06-10T10:32:13;41.30;53.60
44823;DHT22;51097;51.984;5.650;2023-06-10T10:37:30;41.40;51.80
44823;DHT22;51097;51.984;5.650;2023-06-10T10:39:56;41.50;53.00
44823;DHT22;51097;51.984;5.650;2023-06-10T10:42:23;41.70;52.40
44823;DHT22;51097;51.984;5.650;2023-06-10T10:44:50;41.90;50.90
44823;DHT22;51097;51.984;5.650;2023-06-10T10:47:20;42.10;51.10
44823;DHT22;51097;51.984;5.650;2023-06-10T10:49:50;42.20;51.60
44823;DHT22;51097;51.984;5.650;2023-06-10T10:52:16;42.30;50.60
44823;DHT22;51097;51.984;5.650;2023-06-10T10:54:46;42.30;50.10
44823;DHT22;51097;51.984;5.650;2023-06-10T10:57:22;42.20;50.70
44823;DHT22;51097;51.984;5.650;2023-06-10T11:02:18;42.30;50.80
44823;DHT22;51097;51.984;5.650;2023-06-10T11:04:47;42.20;49.00
44823;DHT22;51097;51.984;5.650;2023-06-10T11:07:14;42.20;49.20
44823;DHT22;51097;51.984;5.650;2023-06-10T11:10:07;42.30;50.90
44823;DHT22;51097;51.984;5.650;2023-06-10T11:15:12;42.70;48.70
44823;DHT22;51097;51.984;5.650;2023-06-10T11:18:06;42.70;50.80
44823;DHT22;51097;51.984;5.650;2023-06-10T11:31:28;42.50;48.50
44823;DHT22;51097;51.984;5.650;2023-06-10T11:33:56;42.60;46.90
44823;DHT22;51097;51.984;5.650;2023-06-10T11:36:23;42.70;49.00
44823;DHT22;51097;51.984;5.650;2023-06-10T11:38:50;42.90;48.30
44823;DHT22;51097;51.984;5.650;2023-06-10T11:41:17;43.10;46.20
44823;DHT22;51097;51.984;5.650;2023-06-10T11:43:46;43.10;46.70
44823;DHT22;51097;51.984;5.650;2023-06-10T11:46:13;43.20;47.40
44823;DHT22;51097;51.984;5.650;2023-06-10T11:48:39;43.20;48.20
44823;DHT22;51097;51.984;5.650;2023-06-10T11:51:08;43.40;46.50
44823;DHT22;51097;51.984;5.650;2023-06-10T11:53:34;43.50;47.60
44823;DHT22;51097;51.984;5.650;2023-06-10T11:56:00;43.70;49.40
44823;DHT22;51097;51.984;5.650;2023-06-10T11:58:26;44.00;46.00
44823;DHT22;51097;51.984;5.650;2023-06-10T12:00:53;44.20;46.70
44823;DHT22;51097;51.984;5.650;2023-06-10T12:03:19;44.40;45.90
44823;DHT22;51097;51.984;5.650;2023-06-10T12:05:59;44.70;46.30
44823;DHT22;51097;51.984;5.650;2023-06-10T12:08:25;44.80;46.50
44823;DHT22;51097;51.984;5.650;2023-06-10T12:10:50;44.70;45.60
44823;DHT22;51097;51.984;5.650;2023-06-10T12:13:16;44.70;46.20
44823;DHT22;51097;51.984;5.650;2023-06-10T12:15:45;44.60;46.30
44823;DHT22;51097;51.984;5.650;2023-06-10T12:18:23;44.60;45.40
44823;DHT22;51097;51.984;5.650;2023-06-10T12:20:49;44.70;43.40
44823;DHT22;51097;51.984;5.650;2023-06-10T12:23:17;44.30;44.20
44823;DHT22;51097;51.984;5.650;2023-06-10T12:25:50;44.30;46.70
44823;DHT22;51097;51.984;5.650;2023-06-10T12:28:17;44.30;45.60
44823;DHT22;51097;51.984;5.650;2023-06-10T12:30:45;44.10;47.60
44823;DHT22;51097;51.984;5.650;2023-06-10T12:33:18;44.40;45.30
44823;DHT22;51097;51.984;5.650;2023-06-10T12:35:51;44.60;45.00
44823;DHT22;51097;51.984;5.650;2023-06-10T12:38:22;44.80;45.50
44823;DHT22;51097;51.984;5.650;2023-06-10T12:40:47;44.60;44.40
44823;DHT22;51097;51.984;5.650;2023-06-10T12:43:13;44.40;45.70
44823;DHT22;51097;51.984;5.650;2023-06-10T12:45:44;44.40;45.80
44823;DHT22;51097;51.984;5.650;2023-06-10T12:48:24;44.40;45.10
44823;DHT22;51097;51.984;5.650;2023-06-10T12:50:56;44.50;45.30
44823;DHT22;51097;51.984;5.650;2023-06-10T12:53:23;44.40;43.90
44823;DHT22;51097;51.984;5.650;2023-06-10T12:55:50;44.40;43.20
44823;DHT22;51097;51.984;5.650;2023-06-10T12:58:16;44.50;44.00
44823;DHT22;51097;51.984;5.650;2023-06-10T13:00:42;44.50;45.50
44823;DHT22;51097;51.984;5.650;2023-06-10T13:03:09;44.70;43.30
44823;DHT22;51097;51.984;5.650;2023-06-10T13:05:35;44.60;45.70
44823;DHT22;51097;51.984;5.650;2023-06-10T13:08:07;44.70;45.60
44823;DHT22;51097;51.984;5.650;2023-06-10T13:10:33;44.60;46.00
44823;DHT22;51097;51.984;5.650;2023-06-10T13:13:00;44.70;44.20
44823;DHT22;51097;51.984;5.650;2023-06-10T13:15:26;44.80;42.50
44823;DHT22;51097;51.984;5.650;2023-06-10T13:17:52;44.80;45.10
44823;DHT22;51097;51.984;5.650;2023-06-10T13:20:17;44.60;43.90
44823;DHT22;51097;51.984;5.650;2023-06-10T13:22:43;44.80;43.80
44823;DHT22;51097;51.984;5.650;2023-06-10T13:25:09;44.80;42.50
44823;DHT22;51097;51.984;5.650;2023-06-10T13:27:37;44.80;44.70
44823;DHT22;51097;51.984;5.650;2023-06-10T13:30:05;44.90;44.80
44823;DHT22;51097;51.984;5.650;2023-06-10T13:32:31;45.00;43.50
44823;DHT22;51097;51.984;5.650;2023-06-10T13:34:56;45.00;42.50
44823;DHT22;51097;51.984;5.650;2023-06-10T13:37:22;45.00;42.60
44823;DHT22;51097;51.984;5.650;2023-06-10T13:39:48;45.00;43.70
44823;DHT22;51097;51.984;5.650;2023-06-10T13:42:16;44.80;43.30
44823;DHT22;51097;51.984;5.650;2023-06-10T13:44:42;44.90;44.40
44823;DHT22;51097;51.984;5.650;2023-06-10T13:47:07;45.00;44.10
44823;DHT22;51097;51.984;5.650;2023-06-10T13:49:33;45.20;44.00
44823;DHT22;51097;51.984;5.650;2023-06-10T13:51:59;45.10;44.70
44823;DHT22;51097;51.984;5.650;2023-06-10T13:54:24;45.30;42.10
44823;DHT22;51097;51.984;5.650;2023-06-10T13:56:50;45.30;44.80
44823;DHT22;51097;51.984;5.650;2023-06-10T13:59:16;45.40;44.90
44823;DHT22;51097;51.984;5.650;2023-06-10T14:01:41;45.60;45.00
44823;DHT22;51097;51.984;5.650;2023-06-10T14:04:07;45.70;43.00
44823;DHT22;51097;51.984;5.650;2023-06-10T14:06:33;45.60;41.10
44823;DHT22;51097;51.984;5.650;2023-06-10T14:08:59;45.20;42.00
44823;DHT22;51097;51.984;5.650;2023-06-10T14:11:25;45.20;42.50
44823;DHT22;51097;51.984;5.650;2023-06-10T14:13:51;45.20;41.60
44823;DHT22;51097;51.984;5.650;2023-06-10T14:16:16;45.20;43.10
44823;DHT22;51097;51.984;5.650;2023-06-10T14:18:42;45.20;42.60
44823;DHT22;51097;51.984;5.650;2023-06-10T14:21:07;45.30;43.40
44823;DHT22;51097;51.984;5.650;2023-06-10T14:23:33;45.40;42.10
44823;DHT22;51097;51.984;5.650;2023-06-10T14:25:59;45.60;42.70
44823;DHT22;51097;51.984;5.650;2023-06-10T14:28:24;45.80;41.90
44823;DHT22;51097;51.984;5.650;2023-06-10T14:30:51;45.90;41.40
44823;DHT22;51097;51.984;5.650;2023-06-10T14:33:17;45.60;42.40
44823;DHT22;51097;51.984;5.650;2023-06-10T14:35:43;45.30;40.40
44823;DHT22;51097;51.984;5.650;2023-06-10T14:38:09;45.10;41.80
44823;DHT22;51097;51.984;5.650;2023-06-10T14:40:35;45.10;44.60
44823;DHT22;51097;51.984;5.650;2023-06-10T14:43:00;45.10;42.70
44823;DHT22;51097;51.984;5.650;2023-06-10T14:45:29;45.00;41.00
44823;DHT22;51097;51.984;5.650;2023-06-10T14:47:54;45.10;41.90
44823;DHT22;51097;51.984;5.650;2023-06-10T14:50:20;45.10;42.30
44823;DHT22;51097;51.984;5.650;2023-06-10T14:52:46;45.30;42.40
44823;DHT22;51097;51.984;5.650;2023-06-10T14:55:11;45.40;41.00
44823;DHT22;51097;51.984;5.650;2023-06-10T14:57:37;45.20;40.60
44823;DHT22;51097;51.984;5.650;2023-06-10T15:00:03;45.20;42.40
44823;DHT22;51097;51.984;5.650;2023-06-10T15:02:29;45.30;41.10
44823;DHT22;51097;51.984;5.650;2023-06-10T15:04:54;45.20;42.30
44823;DHT22;51097;51.984;5.650;2023-06-10T15:07:20;45.30;41.90
44823;DHT22;51097;51.984;5.650;2023-06-10T15:09:45;45.40;41.20
44823;DHT22;51097;51.984;5.650;2023-06-10T15:12:12;45.40;42.10
44823;DHT22;51097;51.984;5.650;2023-06-10T15:14:38;45.50;42.20
44823;DHT22;51097;51.984;5.650;2023-06-10T15:17:03;45.40;42.10
44823;DHT22;51097;51.984;5.650;2023-06-10T15:19:29;45.20;40.50
44823;DHT22;51097;51.984;5.650;2023-06-10T15:21:55;45.30;41.50
44823;DHT22;51097;51.984;5.650;2023-06-10T15:24:20;45.40;41.70
44823;DHT22;51097;51.984;5.650;2023-06-10T15:26:46;45.30;42.20
44823;DHT22;51097;51.984;5.650;2023-06-10T15:29:11;45.00;41.00
44823;DHT22;51097;51.984;5.650;2023-06-10T15:31:38;45.00;42.70
44823;DHT22;51097;51.984;5.650;2023-06-10T15:34:06;45.00;41.50
44823;DHT22;51097;51.984;5.650;2023-06-10T15:36:33;45.10;41.90
44823;DHT22;51097;51.984;5.650;2023-06-10T15:39:03;45.10;42.10
44823;DHT22;51097;51.984;5.650;2023-06-10T15:41:29;45.20;42.00
44823;DHT22;51097;51.984;5.650;2023-06-10T15:43:55;45.40;42.50
44823;DHT22;51097;51.984;5.650;2023-06-10T15:46:21;45.60;42.20
44823;DHT22;51097;51.984;5.650;2023-06-10T15:48:46;45.50;41.90
44823;DHT22;51097;51.984;5.650;2023-06-10T15:51:12;45.40;41.90
44823;DHT22;51097;51.984;5.650;2023-06-10T15:53:37;45.40;41.60
44823;DHT22;51097;51.984;5.650;2023-06-10T15:56:03;45.30;41.60
44823;DHT22;51097;51.984;5.650;2023-06-10T15:58:29;45.20;42.10
44823;DHT22;51097;51.984;5.650;2023-06-10T16:00:55;45.30;41.50
44823;DHT22;51097;51.984;5.650;2023-06-10T16:03:20;45.30;41.80
44823;DHT22;51097;51.984;5.650;2023-06-10T16:05:46;45.30;41.90
44823;DHT22;51097;51.984;5.650;2023-06-10T16:08:11;45.30;42.40
44823;DHT22;51097;51.984;5.650;2023-06-10T16:10:37;45.20;42.30
44823;DHT22;51097;51.984;5.650;2023-06-10T16:13:02;45.20;42.00
44823;DHT22;51097;51.984;5.650;2023-06-10T16:15:28;45.20;42.90
44823;DHT22;51097;51.984;5.650;2023-06-10T16:17:53;45.20;43.00
44823;DHT22;51097;51.984;5.650;2023-06-10T16:20:20;45.30;41.80
44823;DHT22;51097;51.984;5.650;2023-06-10T16:22:46;45.30;41.40
44823;DHT22;51097;51.984;5.650;2023-06-10T16:25:11;45.20;42.90
44823;DHT22;51097;51.984;5.650;2023-06-10T16:27:37;45.30;42.40
44823;DHT22;51097;51.984;5.650;2023-06-10T16:30:03;45.40;42.70
44823;DHT22;51097;51.984;5.650;2023-06-10T16:32:28;45.60;42.80
44823;DHT22;51097;51.984;5.650;2023-06-10T16:34:54;45.50;42.30
44823;DHT22;51097;51.984;5.650;2023-06-10T16:37:19;45.40;43.10
44823;DHT22;51097;51.984;5.650;2023-06-10T16:39:45;45.30;43.60
44823;DHT22;51097;51.984;5.650;2023-06-10T16:42:11;45.20;43.00
44823;DHT22;51097;51.984;5.650;2023-06-10T16:44:36;45.20;42.80
44823;DHT22;51097;51.984;5.650;2023-06-10T16:47:02;45.10;42.80
44823;DHT22;51097;51.984;5.650;2023-06-10T16:49:28;45.20;43.70
44823;DHT22;51097;51.984;5.650;2023-06-10T16:51:53;45.00;42.20
44823;DHT22;51097;51.984;5.650;2023-06-10T16:54:19;45.10;42.70
44823;DHT22;51097;51.984;5.650;2023-06-10T16:56:44;45.10;42.70
44823;DHT22;51097;51.984;5.650;2023-06-10T16:59:10;45.00;42.40
44823;DHT22;51097;51.984;5.650;2023-06-10T17:01:36;45.00;42.30
44823;DHT22;51097;51.984;5.650;2023-06-10T17:04:01;45.00;43.10
44823;DHT22;51097;51.984;5.650;2023-06-10T17:06:27;45.10;42.90
44823;DHT22;51097;51.984;5.650;2023-06-10T17:08:52;45.30;43.70
44823;DHT22;51097;51.984;5.650;2023-06-10T17:11:18;45.20;43.70
44823;DHT22;51097;51.984;5.650;2023-06-10T17:13:43;45.20;42.90
44823;DHT22;51097;51.984;5.650;2023-06-10T17:16:10;45.30;42.30
44823;DHT22;51097;51.984;5.650;2023-06-10T17:18:35;45.10;42.40
44823;DHT22;51097;51.984;5.650;2023-06-10T17:21:01;45.00;42.40
44823;DHT22;51097;51.984;5.650;2023-06-10T17:23:26;44.80;42.10
44823;DHT22;51097;51.984;5.650;2023-06-10T17:25:52;44.80;42.80
44823;DHT22;51097;51.984;5.650;2023-06-10T17:28:17;44.70;43.60
44823;DHT22;51097;51.984;5.650;2023-06-10T17:30:43;44.70;42.50
44823;DHT22;51097;51.984;5.650;2023-06-10T17:33:13;44.50;42.30
44823;DHT22;51097;51.984;5.650;2023-06-10T17:35:39;44.20;42.70
44823;DHT22;51097;51.984;5.650;2023-06-10T17:38:05;44.00;42.80
44823;DHT22;51097;51.984;5.650;2023-06-10T17:40:30;43.70;43.30
44823;DHT22;51097;51.984;5.650;2023-06-10T17:42:56;43.70;43.30
44823;DHT22;51097;51.984;5.650;2023-06-10T17:45:22;43.70;43.50
44823;DHT22;51097;51.984;5.650;2023-06-10T17:47:47;43.60;43.50
44823;DHT22;51097;51.984;5.650;2023-06-10T17:50:14;43.60;43.20
44823;DHT22;51097;51.984;5.650;2023-06-10T17:52:39;43.20;43.30
44823;DHT22;51097;51.984;5.650;2023-06-10T17:55:05;43.00;43.30
44823;DHT22;51097;51.984;5.650;2023-06-10T17:57:31;42.50;43.30
44823;DHT22;51097;51.984;5.650;2023-06-10T17:59:57;42.40;43.40
44823;DHT22;51097;51.984;5.650;2023-06-10T18:02:23;42.10;44.10
44823;DHT22;51097;51.984;5.650;2023-06-10T18:04:48;42.00;43.50
44823;DHT22;51097;51.984;5.650;2023-06-10T18:07:14;41.90;44.30
44823;DHT22;51097;51.984;5.650;2023-06-10T18:09:40;41.70;44.40
44823;DHT22;51097;51.984;5.650;2023-06-10T18:12:06;41.30;45.00
44823;DHT22;51097;51.984;5.650;2023-06-10T18:14:32;41.10;44.70
44823;DHT22;51097;51.984;5.650;2023-06-10T18:17:00;40.70;44.70
44823;DHT22;51097;51.984;5.650;2023-06-10T18:19:26;40.50;45.40
44823;DHT22;51097;51.984;5.650;2023-06-10T18:21:51;40.30;45.60
44823;DHT22;51097;51.984;5.650;2023-06-10T18:24:17;40.10;45.80
44823;DHT22;51097;51.984;5.650;2023-06-10T18:26:42;39.70;45.90
44823;DHT22;51097;51.984;5.650;2023-06-10T18:29:08;39.50;45.80